Phoenix, Arizona
Traffic Map
Current Weather Conditions
Phoenix, Arizona
Clear
Clear
35°
Feels Like: 35°
Wind Chill: 35° Ceiling: Unl
Heat Index: 35° Visibility: 10mi
Dew Point: Wind: 3mph
Humidity: 17% Direction: 200° (SSW)
Pressure: 29.93in Gusts: 0mph
Raw Report DataKPHX 242351Z 20003KT 10SM CLR 35/06 A2993 RMK AO2 SLP116 T03500061 10356 20300 56012
Traffic Incident Summary
Active as of:
Severity:
Category:
InformationThere was an issue retrieving the traffic information for this location. Please try a different location or try again shortly.
Advertisements
Track Severe Weather on mobile